Time;durP1;ratioP1;P1;durP2;ratioP2;P2;SDS_P1;SDS_P2;PMS_P1;PMS_P2;Temp;Humidity;BMP_temperature;BMP_pressure;BME280_temperature;BME280_humidity;BME280_pressure;Samples;Min_cycle;Max_cycle;Signal;HPM_P1;HPM_P2
2023/05/25 00:00:59;;;;;;;9.93;3.70;;;;;;;12.96;55.17;100773.25;5033266;28;20061;-77
2023/05/25 00:03:30;;;;;;;10.10;3.70;;;;;;;12.95;55.42;100766.25;5033493;28;20053;-76
2023/05/25 00:06:00;;;;;;;7.55;3.40;;;;;;;12.93;55.26;100760.22;5033093;28;20055;-76
2023/05/25 00:08:28;;;;;;;9.07;3.58;;;;;;;12.94;55.38;100764.56;5032839;28;20511;-77
2023/05/25 00:10:55;;;;;;;12.07;4.70;;;;;;;12.94;55.52;100759.28;5033002;28;20505;-77
2023/05/25 00:13:22;;;;;;;8.02;3.47;;;;;;;12.93;55.49;100770.78;5032498;28;20057;-77
2023/05/25 00:15:48;;;;;;;11.73;4.28;;;;;;;12.92;55.68;100771.69;5033066;28;20111;-76
2023/05/25 00:18:15;;;;;;;6.95;3.33;;;;;;;12.90;55.44;100767.34;5050169;28;20061;-77
2023/05/25 00:20:43;;;;;;;8.65;3.35;;;;;;;12.91;55.37;100773.50;5033108;28;20183;-76
2023/05/25 00:23:10;;;;;;;9.88;3.97;;;;;;;12.89;55.68;100764.78;5032383;28;20053;-76
2023/05/25 00:25:36;;;;;;;11.10;3.47;;;;;;;12.89;55.77;100765.66;5049667;28;20044;-78
2023/05/25 00:28:03;;;;;;;8.95;4.22;;;;;;;12.90;55.85;100766.50;5032703;28;20071;-78
2023/05/25 00:30:30;;;;;;;8.73;3.30;;;;;;;12.91;55.98;100762.94;5050622;28;20065;-77
2023/05/25 00:32:58;;;;;;;10.00;3.38;;;;;;;12.93;55.83;100760.22;5032999;28;20425;-77
2023/05/25 00:35:25;;;;;;;10.98;4.15;;;;;;;12.93;55.60;100766.34;5031958;28;20551;-78
2023/05/25 00:37:51;;;;;;;7.72;3.78;;;;;;;12.92;55.54;100769.91;5050212;28;20098;-77
2023/05/25 00:40:18;;;;;;;13.48;3.90;;;;;;;12.90;55.40;100775.28;5032374;28;20057;-77
2023/05/25 00:42:46;;;;;;;7.47;3.67;;;;;;;12.88;55.47;100771.88;5032601;28;20053;-78
2023/05/25 00:45:12;;;;;;;5.38;3.33;;;;;;;12.85;55.41;100774.66;5050035;28;20130;-77
2023/05/25 00:47:40;;;;;;;11.65;4.03;;;;;;;12.83;55.66;100770.38;5032252;28;20057;-77
2023/05/25 00:50:08;;;;;;;12.00;4.15;;;;;;;12.80;55.93;100768.75;5050248;28;20069;-77
2023/05/25 00:52:35;;;;;;;11.02;4.13;;;;;;;12.79;55.83;100767.06;5049884;28;20071;-78
2023/05/25 00:55:02;;;;;;;8.20;3.60;;;;;;;12.77;55.96;100763.63;5032187;28;20115;-78
2023/05/25 00:57:32;;;;;;;13.30;4.63;;;;;;;12.74;56.77;100755.84;5032189;28;20057;-77
2023/05/25 01:00:03;;;;;;;14.88;4.90;;;;;;;12.74;56.32;100766.41;5032743;28;20065;-77
2023/05/25 01:02:32;;;;;;;11.90;3.97;;;;;;;12.73;56.18;100760.28;5050100;28;20057;-77
2023/05/25 01:05:01;;;;;;;6.35;3.63;;;;;;;12.73;56.02;100756.78;5032209;28;20057;-77
2023/05/25 01:07:29;;;;;;;11.25;4.10;;;;;;;12.71;56.06;100756.00;5032618;28;20060;-77
2023/05/25 01:10:01;;;;;;;9.77;3.60;;;;;;;12.68;56.32;100761.44;5049737;28;20053;-77
2023/05/25 01:12:29;;;;;;;10.55;3.90;;;;;;;12.66;55.76;100761.50;5050420;28;20076;-77
2023/05/25 01:14:57;;;;;;;10.95;4.15;;;;;;;12.63;56.13;100753.72;5032028;28;20080;-78
2023/05/25 01:17:24;;;;;;;9.55;3.65;;;;;;;12.60;56.22;100767.94;5030101;28;20107;-77
2023/05/25 01:19:51;;;;;;;10.63;4.38;;;;;;;12.57;56.04;100760.19;5012356;28;20061;-77
2023/05/25 01:22:56;;;;;;;9.60;3.83;;;;;;;12.51;56.91;100760.47;5015240;28;20061;-77
2023/05/25 01:25:35;;;;;;;8.35;4.22;;;;;;;12.50;57.30;100758.78;5013706;28;20085;-77
2023/05/25 01:28:10;;;;;;;7.95;4.20;;;;;;;12.49;57.28;100762.34;5032250;28;20073;-76
2023/05/25 01:30:41;;;;;;;10.48;4.20;;;;;;;12.47;57.04;100759.78;5032081;28;20136;-77
2023/05/25 01:33:09;;;;;;;10.80;4.35;;;;;;;12.45;56.84;100755.50;5032474;28;20630;-76
2023/05/25 01:35:38;;;;;;;10.00;4.65;;;;;;;12.43;56.75;100762.63;5049290;28;20057;-77
2023/05/25 01:38:05;;;;;;;10.40;4.43;;;;;;;12.42;56.71;100763.56;5033648;28;20049;-78
2023/05/25 01:40:32;;;;;;;10.25;3.97;;;;;;;12.42;56.71;100771.50;5016088;28;20065;-76
2023/05/25 01:42:59;;;;;;;9.98;4.28;;;;;;;12.37;56.83;100762.00;5033702;28;20564;-77
2023/05/25 01:45:26;;;;;;;6.75;4.00;;;;;;;12.36;56.98;100762.94;5015960;28;20111;-78
2023/05/25 01:48:08;;;;;;;9.32;4.18;;;;;;;12.31;57.37;100775.53;5049004;28;20055;-76
2023/05/25 01:50:43;;;;;;;7.85;3.70;;;;;;;12.32;57.26;100776.34;5020659;28;20045;-77
2023/05/25 01:53:33;;;;;;;7.85;3.88;;;;;;;12.26;57.29;100772.22;5053146;28;20052;-77
2023/05/25 01:56:07;;;;;;;10.93;3.90;;;;;;;12.28;56.79;100778.31;5053260;28;20490;-77
2023/05/25 01:58:39;;;;;;;9.65;4.50;;;;;;;12.24;57.07;100774.97;5034810;28;20056;-78
2023/05/25 02:01:08;;;;;;;10.43;4.50;;;;;;;12.22;56.65;100776.81;5053373;28;20132;-78
2023/05/25 02:03:40;;;;;;;7.65;3.75;;;;;;;12.19;57.39;100770.81;5053064;28;20049;-78
2023/05/25 02:06:07;;;;;;;11.77;4.57;;;;;;;12.18;56.72;100775.25;5035586;28;20134;-76
2023/05/25 02:08:34;;;;;;;9.27;4.40;;;;;;;12.15;56.83;100779.81;5035114;28;20068;-76
2023/05/25 02:11:02;;;;;;;10.95;5.00;;;;;;;12.10;57.18;100786.16;5035077;28;20421;-77
2023/05/25 02:13:29;;;;;;;10.10;4.45;;;;;;;12.09;57.08;100787.09;5035119;28;20059;-77
2023/05/25 02:15:55;;;;;;;8.60;4.38;;;;;;;12.06;57.20;100792.50;5034817;28;20156;-78
2023/05/25 02:18:22;;;;;;;10.57;4.43;;;;;;;12.06;57.24;100792.50;5034437;28;20140;-78
2023/05/25 02:20:49;;;;;;;10.00;5.07;;;;;;;12.04;57.38;100783.75;5035164;28;20096;-77
2023/05/25 02:23:17;;;;;;;14.40;4.68;;;;;;;12.05;57.52;100788.16;5034395;28;20065;-78
2023/05/25 02:25:45;;;;;;;10.57;4.32;;;;;;;12.04;57.43;100789.03;5034319;28;20520;-77
2023/05/25 02:28:13;;;;;;;9.60;4.20;;;;;;;12.04;57.51;100782.94;5034575;28;20060;-78
2023/05/25 02:30:39;;;;;;;9.60;4.07;;;;;;;12.06;57.74;100783.72;5052058;28;20556;-79
2023/05/25 02:33:06;;;;;;;9.88;4.00;;;;;;;12.06;57.92;100779.31;5052510;28;20148;-78
2023/05/25 02:38:01;;;;;;;13.50;5.55;;;;;;;12.12;58.34;100788.75;5183615;22;20045;-80
2023/05/25 02:40:28;;;;;;;12.13;4.13;;;;;;;12.15;58.43;100779.81;5052059;28;20056;-80
2023/05/25 02:42:54;;;;;;;11.82;3.97;;;;;;;12.19;58.62;100786.66;5034593;28;20049;-80
2023/05/25 02:45:21;;;;;;;11.27;4.32;;;;;;;12.24;58.42;100784.66;5052257;28;20093;-80
2023/05/25 02:47:47;;;;;;;11.45;4.07;;;;;;;12.27;58.41;100781.88;5051874;28;20055;-80
2023/05/25 02:50:14;;;;;;;10.50;4.85;;;;;;;12.31;58.49;100785.22;5052363;28;20060;-80
2023/05/25 02:52:41;;;;;;;9.32;4.15;;;;;;;12.36;58.31;100786.72;5052302;28;20057;-80
2023/05/25 02:55:12;;;;;;;12.73;4.47;;;;;;;12.40;58.33;100783.94;5052245;28;20139;-79
2023/05/25 02:57:39;;;;;;;12.68;4.38;;;;;;;12.44;58.43;100785.47;5052082;28;20053;-80
2023/05/25 03:00:06;;;;;;;9.13;4.28;;;;;;;12.47;58.45;100798.53;5051657;28;20064;-80
2023/05/25 03:02:33;;;;;;;9.65;4.20;;;;;;;12.50;58.43;100793.97;5051513;28;20140;-80
2023/05/25 03:05:00;;;;;;;9.85;4.20;;;;;;;12.55;58.75;100792.88;5052154;28;20441;-80
2023/05/25 03:07:30;;;;;;;8.55;4.43;;;;;;;12.58;58.71;100787.44;5051998;28;20057;-80
2023/05/25 03:09:58;;;;;;;12.75;5.05;;;;;;;12.60;58.74;100786.44;5051802;28;20524;-80
2023/05/25 03:12:24;;;;;;;10.77;4.38;;;;;;;12.64;58.60;100788.00;5051468;28;20049;-80
2023/05/25 03:14:51;;;;;;;10.98;4.57;;;;;;;12.67;58.62;100788.78;5051063;28;20049;-80
2023/05/25 03:17:17;;;;;;;8.07;4.35;;;;;;;12.70;58.32;100797.41;5051700;28;20144;-80
2023/05/25 03:19:44;;;;;;;10.50;4.38;;;;;;;12.73;58.49;100793.75;5051776;28;20113;-80
2023/05/25 03:22:11;;;;;;;9.93;4.60;;;;;;;12.75;58.44;100794.56;5051524;28;20084;-80
2023/05/25 03:24:40;;;;;;;8.07;4.55;;;;;;;12.78;58.36;100794.38;5033945;28;20122;-80
2023/05/25 03:27:07;;;;;;;9.95;4.57;;;;;;;12.80;58.53;100803.09;5051535;28;20191;-80
2023/05/25 03:29:34;;;;;;;9.70;4.80;;;;;;;12.85;58.77;100800.22;5051364;28;20136;-80
2023/05/25 03:32:01;;;;;;;10.05;5.05;;;;;;;12.86;58.53;100797.50;5051279;28;20119;-80
2023/05/25 03:34:28;;;;;;;8.88;4.50;;;;;;;12.88;58.53;100800.94;5051358;28;20398;-80
2023/05/25 03:36:55;;;;;;;12.15;5.40;;;;;;;12.91;58.55;100805.22;5051164;28;20136;-80
2023/05/25 03:39:22;;;;;;;11.73;5.13;;;;;;;12.92;58.39;100814.84;5051340;28;20053;-80
2023/05/25 03:41:48;;;;;;;10.32;4.13;;;;;;;12.94;58.36;100815.63;5051086;28;20056;-80
2023/05/25 03:44:15;;;;;;;12.70;4.35;;;;;;;12.96;58.68;100813.75;5051501;28;20110;-80
2023/05/25 03:46:42;;;;;;;8.30;4.28;;;;;;;13.00;58.31;100814.44;5050999;28;20061;-80
2023/05/25 03:49:12;;;;;;;10.50;4.68;;;;;;;13.03;58.49;100820.47;5051350;28;20084;-80
2023/05/25 03:51:43;;;;;;;9.60;5.15;;;;;;;13.07;58.43;100817.63;5051205;28;20057;-80
2023/05/25 03:54:11;;;;;;;9.20;4.55;;;;;;;13.09;58.43;100813.97;5033371;28;20164;-80
2023/05/25 03:56:37;;;;;;;10.77;4.72;;;;;;;13.11;58.55;100817.41;5050568;28;20523;-80
2023/05/25 03:59:04;;;;;;;13.00;4.82;;;;;;;13.14;58.18;100821.69;5050669;28;20053;-80
2023/05/25 04:01:30;;;;;;;12.18;5.28;;;;;;;13.15;58.50;100818.09;5050607;28;20056;-80
2023/05/25 04:03:57;;;;;;;9.05;4.80;;;;;;;13.16;58.30;100815.38;5051140;28;20509;-80
2023/05/25 04:06:28;;;;;;;13.52;4.75;;;;;;;13.20;58.49;100820.53;5050798;28;20573;-81
2023/05/25 04:08:56;;;;;;;10.98;4.90;;;;;;;13.23;58.29;100826.50;5050810;28;20088;-80
2023/05/25 04:11:24;;;;;;;13.77;5.15;;;;;;;13.24;58.19;100811.50;5050793;28;20167;-80
2023/05/25 04:13:50;;;;;;;14.43;5.72;;;;;;;13.26;58.15;100818.44;5050646;28;20124;-80
2023/05/25 04:16:17;;;;;;;9.75;5.15;;;;;;;13.28;58.46;100821.84;5050802;28;20104;-80
2023/05/25 04:18:44;;;;;;;11.05;5.72;;;;;;;13.30;58.50;100805.88;5050453;28;20532;-80
2023/05/25 04:21:10;;;;;;;8.95;5.20;;;;;;;13.33;58.34;100815.44;5050809;28;20060;-80
2023/05/25 04:23:37;;;;;;;12.45;5.40;;;;;;;13.36;58.43;100816.16;5050259;28;20748;-80
2023/05/25 04:26:12;;;;;;;10.70;5.68;;;;;;;13.38;58.47;100819.56;5050511;28;20053;-81
2023/05/25 04:28:41;;;;;;;10.25;5.25;;;;;;;13.41;58.24;100816.78;5050728;28;20080;-80
2023/05/25 04:31:08;;;;;;;12.93;5.40;;;;;;;13.43;58.47;100822.84;5050540;28;20456;-81
2023/05/25 04:33:37;;;;;;;13.52;6.05;;;;;;;13.45;58.34;100820.13;5050510;28;20052;-80
2023/05/25 04:36:05;;;;;;;12.52;5.45;;;;;;;13.46;58.40;100819.16;5050015;28;20061;-80
2023/05/25 04:38:32;;;;;;;12.80;6.38;;;;;;;13.49;58.53;100829.63;5032218;28;20053;-80
2023/05/25 04:41:00;;;;;;;10.40;5.50;;;;;;;13.52;58.62;100826.84;5050489;28;20053;-80
2023/05/25 04:43:28;;;;;;;11.77;5.72;;;;;;;13.54;58.57;100827.59;5050430;28;20045;-80
2023/05/25 04:45:56;;;;;;;12.00;5.28;;;;;;;13.59;58.74;100832.66;5050147;28;20575;-80
2023/05/25 04:48:23;;;;;;;14.00;5.93;;;;;;;13.63;58.77;100833.34;5050300;28;20049;-79
2023/05/25 04:50:51;;;;;;;8.77;5.45;;;;;;;13.66;58.83;100839.34;5032507;28;20057;-80
2023/05/25 04:53:19;;;;;;;13.65;5.50;;;;;;;13.69;58.88;100835.69;5050280;28;20128;-80
2023/05/25 04:55:45;;;;;;;10.65;5.85;;;;;;;13.74;58.97;100841.56;5050041;28;20064;-80
2023/05/25 04:58:12;;;;;;;13.73;6.32;;;;;;;13.78;58.81;100844.91;5050199;28;20080;-80
2023/05/25 05:00:40;;;;;;;11.43;5.63;;;;;;;13.83;59.04;100847.31;5032590;28;20206;-80
2023/05/25 05:03:07;;;;;;;11.30;5.45;;;;;;;13.87;58.84;100843.56;5049955;28;20045;-80
2023/05/25 05:05:35;;;;;;;11.70;5.57;;;;;;;13.92;58.62;100849.47;5049949;28;20059;-80
2023/05/25 05:08:02;;;;;;;9.43;5.05;;;;;;;13.96;58.66;100851.03;5050207;28;20135;-80
2023/05/25 05:10:29;;;;;;;12.23;5.90;;;;;;;14.00;58.63;100849.06;5050049;28;20140;-80
2023/05/25 05:12:55;;;;;;;16.30;5.75;;;;;;;14.03;58.64;100856.84;5053677;28;20053;-80
2023/05/25 05:15:22;;;;;;;10.07;5.45;;;;;;;14.06;58.54;100868.09;5053794;28;20061;-80
2023/05/25 05:17:49;;;;;;;13.52;5.93;;;;;;;14.09;58.45;100872.38;5053775;28;20056;-80
2023/05/25 05:20:15;;;;;;;13.60;5.57;;;;;;;14.12;58.56;100866.94;5054173;28;20053;-80
2023/05/25 05:22:42;;;;;;;10.32;5.97;;;;;;;14.15;58.72;100866.78;5036333;28;20053;-80
2023/05/25 05:25:09;;;;;;;11.90;6.15;;;;;;;14.17;58.79;100870.16;5053470;28;20132;-80
2023/05/25 05:27:35;;;;;;;13.70;5.72;;;;;;;14.19;58.81;100868.31;5053753;28;20064;-80
2023/05/25 05:30:02;;;;;;;13.23;6.07;;;;;;;14.24;58.80;100869.84;5053701;28;20123;-80
2023/05/25 05:32:29;;;;;;;19.25;5.75;;;;;;;14.27;58.70;100864.38;5053227;28;20057;-80
2023/05/25 05:34:56;;;;;;;13.82;6.07;;;;;;;14.30;59.08;100867.72;5052855;28;20561;-80
2023/05/25 05:37:22;;;;;;;13.02;5.72;;;;;;;14.34;59.24;100879.00;5036684;28;20524;-79
2023/05/25 05:39:51;;;;;;;11.05;5.85;;;;;;;14.39;59.35;100882.25;5053593;28;20045;-80
2023/05/25 05:42:18;;;;;;;13.82;5.80;;;;;;;14.44;59.19;100882.00;5035446;28;20057;-80
2023/05/25 05:44:44;;;;;;;15.15;5.93;;;;;;;14.49;59.25;100893.19;5053042;28;20484;-80
2023/05/25 05:47:11;;;;;;;12.10;6.60;;;;;;;14.55;59.22;100897.31;5052812;28;20053;-79
2023/05/25 05:49:38;;;;;;;13.43;6.68;;;;;;;14.59;58.95;100901.50;5053672;28;20053;-79
2023/05/25 05:52:05;;;;;;;14.02;7.18;;;;;;;14.62;58.89;100900.47;5053347;28;20528;-80
2023/05/25 05:54:32;;;;;;;11.38;6.32;;;;;;;14.64;58.81;100901.22;5035459;28;20060;-79
2023/05/25 05:56:58;;;;;;;16.33;6.95;;;;;;;14.65;58.81;100909.09;5052554;28;20531;-80
2023/05/25 05:59:25;;;;;;;15.70;6.43;;;;;;;14.66;58.76;100907.31;5035061;28;20132;-79
2023/05/25 06:01:52;;;;;;;18.55;6.57;;;;;;;14.66;58.80;100907.31;5052010;28;20048;-79
2023/05/25 06:04:18;;;;;;;13.18;6.28;;;;;;;14.66;58.83;100913.44;5052360;28;20466;-79
2023/05/25 06:06:45;;;;;;;17.55;6.38;;;;;;;14.66;58.98;100907.31;5052558;28;20136;-79
2023/05/25 06:09:12;;;;;;;16.13;6.50;;;;;;;14.66;58.80;100907.31;5035055;28;20063;-80
2023/05/25 06:11:39;;;;;;;12.15;5.75;;;;;;;14.67;58.79;100917.81;5052760;28;20061;-80
2023/05/25 06:14:06;;;;;;;12.52;6.43;;;;;;;14.67;58.96;100911.66;5052449;28;20052;-79
2023/05/25 06:16:32;;;;;;;12.30;5.85;;;;;;;14.67;58.42;100915.16;5052963;28;20477;-79
2023/05/25 06:19:00;;;;;;;14.00;6.10;;;;;;;14.68;58.76;100916.00;5035334;28;20049;-79
2023/05/25 06:21:26;;;;;;;15.82;6.75;;;;;;;14.69;58.86;100920.38;5052531;28;20502;-80
2023/05/25 06:23:54;;;;;;;16.02;6.57;;;;;;;14.70;58.88;100916.78;5052456;28;20053;-80
2023/05/25 06:26:20;;;;;;;10.13;5.50;;;;;;;14.70;58.81;100914.97;5052041;28;20651;-80
2023/05/25 06:28:48;;;;;;;17.52;6.07;;;;;;;14.73;58.85;100924.59;5052522;28;20052;-80
2023/05/25 06:31:15;;;;;;;16.83;6.88;;;;;;;14.78;58.97;100921.69;5052755;28;20056;-80
2023/05/25 06:33:42;;;;;;;15.15;7.32;;;;;;;14.81;59.26;100932.97;5052486;28;20052;-80
2023/05/25 06:36:09;;;;;;;15.05;7.28;;;;;;;14.87;58.95;100931.75;5051978;28;20091;-80
2023/05/25 06:38:36;;;;;;;14.57;6.25;;;;;;;14.93;59.13;100936.75;5051895;28;20053;-80
2023/05/25 06:41:04;;;;;;;17.27;6.40;;;;;;;14.98;59.03;100934.69;5051767;28;20131;-80
2023/05/25 06:43:31;;;;;;;15.15;7.38;;;;;;;15.04;59.20;100937.91;5034180;28;20057;-79
2023/05/25 06:45:58;;;;;;;18.40;6.97;;;;;;;15.09;59.04;100934.06;5051049;28;20088;-79
2023/05/25 06:48:25;;;;;;;18.40;6.57;;;;;;;15.15;59.05;100935.53;5052227;28;20057;-79
2023/05/25 06:50:51;;;;;;;16.10;6.88;;;;;;;15.20;58.93;100933.44;5034031;28;20136;-78
2023/05/25 06:53:18;;;;;;;13.35;6.25;;;;;;;15.24;58.85;100937.63;5051975;28;20052;-79
2023/05/25 06:55:45;;;;;;;17.13;7.28;;;;;;;15.30;58.73;100932.91;5051161;28;20131;-79
2023/05/25 06:58:13;;;;;;;13.00;7.13;;;;;;;15.34;58.90;100942.41;5034120;28;20116;-79
2023/05/25 07:00:40;;;;;;;19.90;8.48;;;;;;;15.40;58.68;100946.50;5051843;28;20049;-79
2023/05/25 07:03:07;;;;;;;16.80;6.97;;;;;;;15.45;58.82;100941.78;5050708;28;20060;-79
2023/05/25 07:05:33;;;;;;;11.48;6.47;;;;;;;15.50;58.55;100940.56;5050222;28;20128;-79
2023/05/25 07:08:00;;;;;;;13.77;6.63;;;;;;;15.54;58.47;100938.56;5051811;28;20123;-80
2023/05/25 07:10:26;;;;;;;16.90;6.85;;;;;;;15.58;58.48;100941.88;5051564;28;20056;-80
2023/05/25 07:12:53;;;;;;;14.98;7.28;;;;;;;15.62;58.38;100957.56;5051202;28;20064;-80
2023/05/25 07:15:21;;;;;;;15.15;6.93;;;;;;;15.65;58.17;100956.50;5051866;28;20132;-79
2023/05/25 07:17:48;;;;;;;13.73;6.75;;;;;;;15.68;57.67;100961.66;5051598;28;20052;-80
2023/05/25 07:20:15;;;;;;;20.63;7.05;;;;;;;15.67;57.81;100961.75;5051566;28;20052;-80
2023/05/25 07:22:42;;;;;;;15.45;7.10;;;;;;;15.65;57.71;100959.16;5050976;28;20060;-80
2023/05/25 07:25:09;;;;;;;18.45;7.68;;;;;;;15.64;57.96;100973.41;5033188;28;20154;-80
2023/05/25 07:27:35;;;;;;;12.80;6.82;;;;;;;15.64;58.26;100962.78;5051454;28;20068;-80
2023/05/25 07:30:03;;;;;;;14.73;7.13;;;;;;;15.68;58.67;100956.34;5050958;28;20056;-80
2023/05/25 07:32:30;;;;;;;12.85;6.20;;;;;;;15.74;58.70;100958.63;5051070;28;20088;-80
2023/05/25 07:34:56;;;;;;;11.00;6.43;;;;;;;15.83;58.76;100969.63;5050604;28;20065;-80
2023/05/25 07:37:23;;;;;;;14.25;7.05;;;;;;;15.91;58.62;100970.03;5051373;28;20053;-80
2023/05/25 07:39:50;;;;;;;17.10;7.15;;;;;;;16.00;58.04;100973.97;5050767;28;20144;-79
2023/05/25 07:42:20;;;;;;;13.82;6.75;;;;;;;16.07;57.67;100977.13;5050114;28;20045;-80
2023/05/25 07:44:47;;;;;;;15.77;6.55;;;;;;;16.11;57.19;100982.13;5033251;28;20096;-80
2023/05/25 07:47:14;;;;;;;18.27;6.32;;;;;;;16.13;56.83;100979.38;5051263;28;20494;-80
2023/05/25 07:49:41;;;;;;;10.55;6.45;;;;;;;16.13;56.81;100984.69;5051572;28;20048;-80
2023/05/25 07:52:08;;;;;;;16.42;6.93;;;;;;;16.11;56.46;100979.47;5050859;28;20448;-82
2023/05/25 07:54:38;;;;;;;12.73;6.30;;;;;;;16.10;56.33;100990.19;5051062;28;20055;-80
2023/05/25 07:57:06;;;;;;;15.80;7.13;;;;;;;16.07;56.21;100993.88;5050684;28;20655;-80
2023/05/25 07:59:33;;;;;;;12.48;6.43;;;;;;;16.02;56.30;100988.88;5049849;28;20498;-80
2023/05/25 08:01:59;;;;;;;10.82;5.63;;;;;;;16.02;56.46;100993.31;5050575;28;20529;-80
2023/05/25 08:04:26;;;;;;;11.63;5.78;;;;;;;16.02;56.39;101002.16;5050645;28;20049;-80
2023/05/25 08:06:53;;;;;;;14.20;6.00;;;;;;;16.02;56.31;101002.16;5032803;28;20120;-80
2023/05/25 08:09:20;;;;;;;10.27;5.57;;;;;;;16.02;56.23;100999.50;5051107;28;20064;-80
2023/05/25 08:11:46;;;;;;;9.13;5.70;;;;;;;16.02;56.12;101010.13;5050026;28;20106;-80
2023/05/25 08:14:13;;;;;;;14.25;6.25;;;;;;;16.04;56.22;101001.19;5032342;28;20136;-80
2023/05/25 08:16:40;;;;;;;11.50;5.78;;;;;;;16.08;56.33;101002.72;5049675;28;20084;-80
2023/05/25 08:19:06;;;;;;;13.93;5.53;;;;;;;16.12;55.99;101004.25;5049799;28;20079;-80
2023/05/25 08:21:33;;;;;;;11.23;5.70;;;;;;;16.18;55.72;101006.53;5050103;28;20073;-80
2023/05/25 08:24:03;;;;;;;11.77;5.30;;;;;;;16.23;55.69;101007.09;5050051;28;20056;-80
2023/05/25 08:26:30;;;;;;;10.57;5.35;;;;;;;16.30;56.18;101004.06;5050418;28;20053;-80
2023/05/25 08:29:17;;;;;;;13.25;6.65;;;;;;;16.44;56.34;101004.06;5050786;28;20080;-80
2023/05/25 08:31:48;;;;;;;12.55;6.07;;;;;;;16.58;56.36;101005.00;5050460;28;20513;-80
2023/05/25 08:34:15;;;;;;;13.07;6.00;;;;;;;16.73;56.22;101003.19;5050920;28;20064;-79
2023/05/25 08:39:34;;;;;;;12.88;5.97;;;;;;;17.02;55.50;101009.34;5056232;23;20060;-77
2023/05/25 08:42:02;;;;;;;11.23;5.78;;;;;;;17.12;54.85;101006.94;5032625;28;20597;-78
2023/05/25 08:44:29;;;;;;;14.68;6.68;;;;;;;17.18;54.54;101011.88;5050383;28;20083;-77
2023/05/25 08:46:56;;;;;;;11.38;5.68;;;;;;;17.22;54.05;101006.34;5049802;28;20395;-78
2023/05/25 08:49:25;;;;;;;10.85;6.03;;;;;;;17.24;53.90;101009.78;5050518;28;20104;-79
2023/05/25 08:51:54;;;;;;;12.25;6.63;;;;;;;17.25;54.02;101019.47;5032738;28;20482;-78
2023/05/25 08:54:29;;;;;;;14.05;6.45;;;;;;;17.23;53.50;101019.56;5050314;28;20092;-78
2023/05/25 08:57:02;;;;;;;14.05;6.40;;;;;;;17.24;53.43;101012.44;5050116;28;20052;-78
2023/05/25 08:59:41;;;;;;;13.30;5.78;;;;;;;17.21;53.41;101013.50;5050273;28;20057;-78
2023/05/25 09:02:31;;;;;;;12.77;5.85;;;;;;;17.22;53.41;101020.50;5050152;28;20083;-78
2023/05/25 09:05:00;;;;;;;11.90;6.30;;;;;;;17.23;53.59;101019.56;5050198;28;20457;-77
2023/05/25 09:07:28;;;;;;;10.00;5.60;;;;;;;17.25;53.87;101022.97;5050061;28;20079;-78
2023/05/25 09:09:56;;;;;;;9.82;4.93;;;;;;;17.27;53.82;101026.38;5050016;28;20056;-78
2023/05/25 09:12:23;;;;;;;10.20;5.10;;;;;;;17.33;53.77;101019.81;5050250;28;20123;-78
2023/05/25 09:14:52;;;;;;;11.15;5.47;;;;;;;17.37;53.77;101021.31;5050188;28;20060;-78
2023/05/25 09:17:20;;;;;;;15.73;6.25;;;;;;;17.43;53.88;101028.06;5049937;28;20108;-78
2023/05/25 09:19:46;;;;;;;9.77;5.45;;;;;;;17.47;53.51;101026.91;5050147;28;20085;-77
2023/05/25 09:22:13;;;;;;;9.73;5.32;;;;;;;17.49;53.08;101030.31;5049868;28;20057;-78
2023/05/25 09:24:43;;;;;;;13.20;5.80;;;;;;;17.51;53.31;101024.88;5050080;28;20080;-78
2023/05/25 09:27:12;;;;;;;13.45;5.38;;;;;;;17.51;53.50;101031.06;5049816;28;20654;-78
2023/05/25 09:29:38;;;;;;;12.25;5.57;;;;;;;17.52;53.20;101030.09;5050107;28;20147;-78
2023/05/25 09:32:05;;;;;;;9.93;5.10;;;;;;;17.51;53.05;101039.06;5050119;28;20114;-79
2023/05/25 09:34:32;;;;;;;10.27;4.60;;;;;;;17.51;53.34;101031.06;5049916;28;20089;-77
2023/05/25 09:37:02;;;;;;;13.15;4.57;;;;;;;17.52;53.10;101038.09;5049610;28;20061;-78
2023/05/25 09:39:29;;;;;;;8.35;4.22;;;;;;;17.54;53.21;101046.81;5049942;28;20057;-77
2023/05/25 09:41:56;;;;;;;9.68;4.53;;;;;;;17.57;53.18;101038.63;5050001;28;20156;-78
2023/05/25 09:44:25;;;;;;;8.65;4.13;;;;;;;17.60;52.82;101039.41;5049795;28;20421;-77
2023/05/25 09:46:52;;;;;;;11.82;4.57;;;;;;;17.64;52.85;101038.25;5049568;28;20057;-77
2023/05/25 09:49:20;;;;;;;6.95;3.95;;;;;;;17.67;52.85;101038.03;5049751;28;20456;-78
2023/05/25 09:51:47;;;;;;;7.85;4.25;;;;;;;17.70;52.91;101036.03;5049866;28;20057;-79
2023/05/25 09:54:14;;;;;;;9.50;3.90;;;;;;;17.76;52.82;101041.91;5049665;28;20551;-77
2023/05/25 09:56:41;;;;;;;9.25;4.22;;;;;;;17.83;52.86;101045.84;5049711;28;20139;-78
2023/05/25 09:59:08;;;;;;;6.50;3.67;;;;;;;17.89;53.05;101041.91;5053120;28;20464;-77
2023/05/25 10:01:35;;;;;;;9.32;3.83;;;;;;;17.97;52.96;101045.78;5035651;28;20045;-77
2023/05/25 10:04:02;;;;;;;5.82;3.65;;;;;;;18.10;53.24;101048.47;5053319;28;20053;-78
2023/05/25 10:06:33;;;;;;;7.70;4.05;;;;;;;18.23;53.13;101045.84;5053172;28;20506;-77
2023/05/25 10:09:02;;;;;;;9.30;3.92;;;;;;;18.36;53.35;101043.16;5053179;28;20088;-78
2023/05/25 10:11:30;;;;;;;7.88;3.67;;;;;;;18.53;52.94;101046.47;5035468;28;20052;-78
2023/05/25 10:14:02;;;;;;;8.95;4.05;;;;;;;18.69;53.04;101043.56;5053186;28;20069;-78
2023/05/25 10:16:32;;;;;;;8.02;4.05;;;;;;;18.87;53.04;101043.22;5052836;28;20409;-78
2023/05/25 10:19:20;;;;;;;6.32;3.50;;;;;;;19.02;52.37;101046.59;5053023;28;20064;-78
2023/05/25 10:21:58;;;;;;;10.65;4.22;;;;;;;19.20;51.60;101048.91;5053190;28;20061;-77
2023/05/25 10:24:37;;;;;;;11.05;4.15;;;;;;;19.30;50.76;101047.28;5053107;28;20052;-77
2023/05/25 10:27:09;;;;;;;9.18;3.38;;;;;;;19.39;51.98;101043.94;5052816;28;20564;-79
2023/05/25 10:29:54;;;;;;;8.25;3.50;;;;;;;19.51;51.56;101041.34;5052706;28;20513;-77
2023/05/25 10:32:23;;;;;;;11.02;3.70;;;;;;;19.61;51.75;101045.00;5035228;28;20049;-77
2023/05/25 10:34:51;;;;;;;7.85;3.35;;;;;;;19.72;51.83;101036.19;5052561;28;20060;-78
2023/05/25 10:37:18;;;;;;;8.35;3.15;;;;;;;19.89;51.79;101036.72;5052150;28;20409;-77
2023/05/25 10:39:45;;;;;;;8.35;3.28;;;;;;;20.07;51.79;101039.81;5035049;28;20056;-78
2023/05/25 10:42:12;;;;;;;8.82;4.03;;;;;;;20.28;51.12;101033.78;5052719;28;20059;-78
2023/05/25 10:44:42;;;;;;;10.80;3.60;;;;;;;20.48;49.49;101042.09;5052576;28;20053;-78
2023/05/25 10:47:09;;;;;;;8.18;3.42;;;;;;;20.63;49.68;101046.22;5052249;28;20053;-78
2023/05/25 10:49:54;;;;;;;6.93;3.20;;;;;;;20.69;49.03;101050.22;5052239;28;20472;-78
2023/05/25 10:52:25;;;;;;;11.00;4.07;;;;;;;20.79;48.87;101048.50;5052458;28;20064;-79
2023/05/25 10:54:55;;;;;;;9.48;3.60;;;;;;;20.83;48.36;101046.47;5052272;28;20068;-79
2023/05/25 10:57:23;;;;;;;10.13;3.75;;;;;;;20.88;48.64;101044.28;5052145;28;20064;-78
2023/05/25 10:59:51;;;;;;;9.38;3.60;;;;;;;20.92;48.39;101045.75;5052162;28;20045;-78
2023/05/25 11:02:23;;;;;;;8.82;3.80;;;;;;;20.97;47.75;101037.31;5052169;28;20051;-79
2023/05/25 11:05:29;;;;;;;7.93;3.65;;;;;;;21.00;47.54;101033.59;5034164;28;20080;-79
2023/05/25 11:07:57;;;;;;;9.07;3.35;;;;;;;21.09;48.00;101038.19;5051514;28;20173;-78
2023/05/25 11:10:51;;;;;;;10.75;3.63;;;;;;;21.04;47.72;101040.38;5051214;28;20057;-77
2023/05/25 11:13:30;;;;;;;8.18;3.33;;;;;;;21.05;46.90;101034.06;5034398;28;20052;-77
2023/05/25 11:16:08;;;;;;;6.15;2.95;;;;;;;21.04;46.91;101041.22;5051664;28;20057;-78
2023/05/25 11:18:40;;;;;;;8.23;3.35;;;;;;;21.05;46.92;101034.88;5051688;28;20053;-78
2023/05/25 11:21:15;;;;;;;9.63;3.43;;;;;;;21.04;46.65;101027.00;5051779;28;20140;-78
2023/05/25 11:24:03;;;;;;;13.35;3.40;;;;;;;21.01;47.27;101028.06;5034336;28;20140;-78
2023/05/25 11:26:32;;;;;;;11.25;3.60;;;;;;;21.10;46.95;101026.50;5034192;28;20053;-78
2023/05/25 11:29:00;;;;;;;10.48;3.70;;;;;;;21.13;46.72;101031.59;5051820;28;20059;-78
2023/05/25 11:31:32;;;;;;;8.88;3.67;;;;;;;21.16;47.33;101031.31;5051552;28;20100;-79